Time,TemperatureF,DewpointF,PressureIn,WindDirection,WindDirectionDegrees,WindSpeedMPH,WindSpeedGustMPH,Humidity,HourlyPrecipIn,Conditions,Clouds,dailyrainin,SoftwareType,DateUTC
2013-08-30 00:01:00,75.2,72.1,29.92,WSW,250,0.0,0.0,90,0.00,,SKC,0.00,VWS V13.00,2013-08-30 05:01:00,
2013-08-30 00:06:00,75.2,72.1,29.91,WSW,250,0.0,0.0,90,0.00,,SKC,0.00,VWS V13.00,2013-08-30 05:06:00,
2013-08-30 00:11:00,75.2,72.1,29.91,WSW,250,0.0,0.0,90,0.00,,SKC,0.00,VWS V13.00,2013-08-30 05:11:00,
2013-08-30 00:16:00,75.2,72.1,29.92,WSW,250,0.0,0.0,90,0.00,,SKC,0.00,VWS V13.00,2013-08-30 05:16:00,
2013-08-30 00:21:00,75.1,72.3,29.92,WSW,250,0.0,0.0,91,0.00,,SKC,0.00,VWS V13.00,2013-08-30 05:21:00,
2013-08-30 00:26:00,74.9,72.1,29.91,WSW,250,0.0,0.0,91,0.00,,SKC,0.00,VWS V13.00,2013-08-30 05:26:00,
2013-08-30 00:31:00,74.9,72.1,29.91,WSW,250,0.0,0.0,91,0.00,,SKC,0.00,VWS V13.00,2013-08-30 05:31:00,
2013-08-30 00:36:00,74.8,72.0,29.92,WSW,250,0.0,0.0,91,0.00,,SKC,0.00,VWS V13.00,2013-08-30 05:36:00,
2013-08-30 00:41:00,74.8,72.0,29.91,WSW,250,0.0,0.0,91,0.00,,SKC,0.00,VWS V13.00,2013-08-30 05:41:00,
2013-08-30 00:46:00,74.7,71.9,29.92,WSW,250,0.0,0.0,91,0.00,,SKC,0.00,VWS V13.00,2013-08-30 05:46:00,
2013-08-30 00:51:00,74.5,71.7,29.91,WSW,250,0.0,0.0,91,0.00,,SKC,0.00,VWS V13.00,2013-08-30 05:51:00,
2013-08-30 00:56:00,74.4,71.9,29.92,WSW,250,0.0,0.0,92,0.00,,SKC,0.00,VWS V13.00,2013-08-30 05:56:00,
2013-08-30 01:01:00,74.3,71.8,29.91,WSW,250,0.0,0.0,92,0.00,,SKC,0.00,VWS V13.00,2013-08-30 06:01:00,
2013-08-30 01:06:00,74.3,71.8,29.91,WSW,250,0.0,0.0,92,0.00,,SKC,0.00,VWS V13.00,2013-08-30 06:06:00,
2013-08-30 01:11:00,74.2,71.7,29.91,WSW,250,0.0,0.0,92,0.00,,SKC,0.00,VWS V13.00,2013-08-30 06:11:00,
2013-08-30 01:16:00,74.2,71.7,29.91,WSW,250,0.0,0.0,92,0.00,,SKC,0.00,VWS V13.00,2013-08-30 06:16:00,
2013-08-30 01:21:00,74.1,71.6,29.91,WSW,250,0.0,0.0,92,0.00,,SKC,0.00,VWS V13.00,2013-08-30 06:21:00,
2013-08-30 01:26:00,74.1,71.6,29.91,WSW,250,0.0,0.0,92,0.00,,SKC,0.00,VWS V13.00,2013-08-30 06:26:00,
2013-08-30 01:31:00,74.1,71.6,29.91,WSW,250,0.0,0.0,92,0.00,,SKC,0.00,VWS V13.00,2013-08-30 06:31:00,
2013-08-30 01:36:00,74.0,71.5,29.91,WSW,250,0.0,0.0,92,0.00,,SKC,0.00,VWS V13.00,2013-08-30 06:36:00,
2013-08-30 01:41:00,73.8,71.3,29.91,WSW,250,0.0,0.0,92,0.00,,SKC,0.00,VWS V13.00,2013-08-30 06:41:00,
2013-08-30 01:46:00,73.8,71.3,29.91,WSW,250,0.0,0.0,92,0.00,,SKC,0.00,VWS V13.00,2013-08-30 06:46:00,
2013-08-30 01:51:00,73.6,71.1,29.91,WSW,250,0.0,0.0,92,0.00,,SKC,0.00,VWS V13.00,2013-08-30 06:51:00,
2013-08-30 01:56:00,73.2,70.7,29.91,WSW,250,0.0,0.0,92,0.00,,SKC,0.00,VWS V13.00,2013-08-30 06:56:00,
2013-08-30 02:01:00,72.9,70.8,29.91,WSW,250,0.0,0.0,93,0.00,,SKC,0.00,VWS V13.00,2013-08-30 07:01:00,
2013-08-30 02:06:00,72.7,70.9,29.91,WSW,250,0.0,0.0,94,0.00,,SKC,0.00,VWS V13.00,2013-08-30 07:06:00,
2013-08-30 02:11:00,72.5,71.0,29.91,WSW,250,0.0,0.0,95,0.00,,SKC,0.00,VWS V13.00,2013-08-30 07:11:00,
2013-08-30 02:16:00,72.4,70.9,29.91,WSW,250,0.0,0.0,95,0.00,,SKC,0.00,VWS V13.00,2013-08-30 07:16:00,
2013-08-30 02:21:00,72.3,70.8,29.91,WSW,250,0.0,0.0,95,0.00,,SKC,0.00,VWS V13.00,2013-08-30 07:21:00,
2013-08-30 02:26:00,72.3,71.1,29.91,WSW,250,0.0,0.0,96,0.00,,SKC,0.00,VWS V13.00,2013-08-30 07:26:00,
2013-08-30 02:31:00,72.2,71.0,29.91,WSW,250,0.0,0.0,96,0.00,,SKC,0.00,VWS V13.00,2013-08-30 07:31:00,
2013-08-30 02:36:00,72.2,71.0,29.91,WSW,250,0.0,0.0,96,0.00,,SKC,0.00,VWS V13.00,2013-08-30 07:36:00,
2013-08-30 02:40:00,72.3,71.1,29.91,WSW,250,0.0,0.0,96,0.00,,SKC,0.00,VWS V13.00,2013-08-30 07:40:00,
2013-08-30 02:45:00,72.3,71.1,29.91,WSW,250,0.0,0.0,96,0.00,,SKC,0.00,VWS V13.00,2013-08-30 07:45:00,
2013-08-30 02:50:00,72.3,71.1,29.91,WSW,250,0.0,0.0,96,0.00,,SKC,0.00,VWS V13.00,2013-08-30 07:50:00,
2013-08-30 02:55:00,72.4,71.2,29.91,WSW,250,0.0,0.0,96,0.00,,SKC,0.00,VWS V13.00,2013-08-30 07:55:00,
2013-08-30 03:00:00,72.6,71.4,29.91,WSW,250,0.0,0.0,96,0.00,,SKC,0.00,VWS V13.00,2013-08-30 08:00:00,
2013-08-30 03:05:00,72.6,71.1,29.91,WSW,250,0.0,0.0,95,0.00,,SKC,0.00,VWS V13.00,2013-08-30 08:05:00,
2013-08-30 03:10:00,72.7,71.2,29.91,WSW,250,0.0,0.0,95,0.00,,SKC,0.00,VWS V13.00,2013-08-30 08:10:00,
2013-08-30 03:15:00,72.7,71.2,29.91,WSW,250,0.0,0.0,95,0.00,,SKC,0.00,VWS V13.00,2013-08-30 08:15:00,
2013-08-30 03:20:00,72.7,71.2,29.91,WSW,250,0.0,0.0,95,0.00,,SKC,0.00,VWS V13.00,2013-08-30 08:20:00,
2013-08-30 03:25:00,72.6,71.1,29.91,WSW,250,0.0,0.0,95,0.00,,SKC,0.00,VWS V13.00,2013-08-30 08:25:00,
2013-08-30 03:30:00,72.4,70.9,29.91,WSW,250,0.0,0.0,95,0.00,,SKC,0.00,VWS V13.00,2013-08-30 08:30:00,
2013-08-30 03:35:00,72.3,70.8,29.91,WSW,250,0.0,0.0,95,0.00,,SKC,0.00,VWS V13.00,2013-08-30 08:35:00,
2013-08-30 03:40:00,72.4,70.9,29.91,WSW,250,0.0,0.0,95,0.00,,SKC,0.00,VWS V13.00,2013-08-30 08:40:00,
2013-08-30 03:45:00,72.3,70.8,29.91,WSW,250,0.0,0.0,95,0.00,,SKC,0.00,VWS V13.00,2013-08-30 08:45:00,
2013-08-30 03:50:00,72.3,71.1,29.91,WSW,250,0.0,0.0,96,0.00,,SKC,0.00,VWS V13.00,2013-08-30 08:50:00,
2013-08-30 03:55:00,72.3,71.1,29.91,WSW,250,0.0,0.0,96,0.00,,SKC,0.00,VWS V13.00,2013-08-30 08:55:00,
2013-08-30 04:00:00,72.2,70.7,29.91,WSW,250,0.0,0.0,95,0.00,,SKC,0.00,VWS V13.00,2013-08-30 09:00:00,
2013-08-30 04:05:00,72.1,70.6,29.91,WSW,250,0.0,0.0,95,0.00,,SKC,0.00,VWS V13.00,2013-08-30 09:05:00,
2013-08-30 04:10:00,72.1,70.9,29.91,WSW,250,0.0,0.0,96,0.00,,SKC,0.00,VWS V13.00,2013-08-30 09:10:00,
2013-08-30 04:15:00,72.1,70.9,29.91,WSW,250,0.0,0.0,96,0.00,,SKC,0.00,VWS V13.00,2013-08-30 09:15:00,
2013-08-30 04:20:00,72.0,70.8,29.91,WSW,250,0.0,0.0,96,0.00,,SKC,0.00,VWS V13.00,2013-08-30 09:20:00,
2013-08-30 04:25:00,72.0,70.8,29.91,WSW,250,0.0,0.0,96,0.00,,SKC,0.00,VWS V13.00,2013-08-30 09:25:00,
2013-08-30 04:30:00,72.0,70.8,29.91,WSW,250,0.0,0.0,96,0.00,,SKC,0.00,VWS V13.00,2013-08-30 09:30:00,
2013-08-30 04:35:00,72.1,70.9,29.91,WSW,250,0.0,0.0,96,0.00,,SKC,0.00,VWS V13.00,2013-08-30 09:35:00,
2013-08-30 04:40:00,72.1,70.9,29.91,WSW,250,0.0,0.0,96,0.00,,SKC,0.00,VWS V13.00,2013-08-30 09:40:00,
2013-08-30 04:45:00,72.1,70.9,29.91,WSW,250,0.0,0.0,96,0.00,,SKC,0.00,VWS V13.00,2013-08-30 09:45:00,
2013-08-30 04:50:00,72.2,71.0,29.91,WSW,250,0.0,0.0,96,0.00,,SKC,0.00,VWS V13.00,2013-08-30 09:50:00,
2013-08-30 04:55:00,72.1,70.9,29.91,WSW,250,0.0,0.0,96,0.00,,SKC,0.00,VWS V13.00,2013-08-30 09:55:00,
2013-08-30 05:00:00,72.1,70.9,29.92,WSW,250,0.0,0.0,96,0.00,,SKC,0.00,VWS V13.00,2013-08-30 10:00:00,
2013-08-30 05:05:00,72.1,70.9,29.92,WSW,250,0.0,0.0,96,0.00,,SKC,0.00,VWS V13.00,2013-08-30 10:05:00,
2013-08-30 05:10:00,72.2,71.0,29.92,WSW,250,0.0,0.0,96,0.00,,SKC,0.00,VWS V13.00,2013-08-30 10:10:00,
2013-08-30 05:15:00,72.2,71.0,29.91,WSW,250,0.0,0.0,96,0.00,,SKC,0.00,VWS V13.00,2013-08-30 10:15:00,
2013-08-30 05:20:00,72.2,71.0,29.91,WSW,250,0.0,0.0,96,0.00,,SKC,0.00,VWS V13.00,2013-08-30 10:20:00,
2013-08-30 05:25:00,72.2,71.0,29.91,WSW,250,0.0,0.0,96,0.00,,SKC,0.00,VWS V13.00,2013-08-30 10:25:00,
2013-08-30 05:30:00,72.2,71.0,29.91,WSW,250,0.0,0.0,96,0.00,,SKC,0.00,VWS V13.00,2013-08-30 10:30:00,
2013-08-30 05:35:00,72.2,70.7,29.92,WSW,250,0.0,0.0,95,0.00,,SKC,0.00,VWS V13.00,2013-08-30 10:35:00,
2013-08-30 05:40:00,71.9,70.4,29.92,WSW,250,0.0,0.0,95,0.00,,SKC,0.00,VWS V13.00,2013-08-30 10:40:00,
2013-08-30 05:45:00,71.6,70.1,29.92,WSW,250,0.0,0.0,95,0.00,,SKC,0.00,VWS V13.00,2013-08-30 10:45:00,
2013-08-30 05:50:00,71.4,69.9,29.92,WSW,250,0.0,0.0,95,0.00,,SKC,0.00,VWS V13.00,2013-08-30 10:50:00,
2013-08-30 05:55:00,71.2,70.0,29.92,WSW,250,0.0,0.0,96,0.00,,SKC,0.00,VWS V13.00,2013-08-30 10:55:00,
2013-08-30 06:00:00,70.9,69.4,29.92,WSW,250,0.0,0.0,95,0.00,,SKC,0.00,VWS V13.00,2013-08-30 11:00:00,
2013-08-30 06:05:00,70.7,69.5,29.93,WSW,250,0.0,0.0,96,0.00,,SKC,0.00,VWS V13.00,2013-08-30 11:05:00,
2013-08-30 06:10:00,70.5,69.3,29.93,WSW,250,0.0,0.0,96,0.00,,SKC,0.00,VWS V13.00,2013-08-30 11:10:00,
2013-08-30 06:15:00,70.4,69.5,29.93,WSW,250,0.0,0.0,97,0.00,,SKC,0.00,VWS V13.00,2013-08-30 11:15:00,
2013-08-30 06:20:00,70.5,69.6,29.93,WSW,250,0.0,0.0,97,0.00,,SKC,0.00,VWS V13.00,2013-08-30 11:20:00,
2013-08-30 06:25:00,70.5,69.6,29.93,WSW,250,0.0,0.0,97,0.00,,SKC,0.00,VWS V13.00,2013-08-30 11:25:00,
2013-08-30 06:30:00,70.4,69.5,29.93,WSW,250,0.0,0.0,97,0.00,,SKC,0.00,VWS V13.00,2013-08-30 11:30:00,
2013-08-30 06:35:00,70.4,69.5,29.94,WSW,250,0.0,0.0,97,0.00,,SKC,0.00,VWS V13.00,2013-08-30 11:35:00,
2013-08-30 06:40:00,70.4,69.5,29.93,WSW,250,0.0,0.0,97,0.00,,SKC,0.00,VWS V13.00,2013-08-30 11:40:00,
2013-08-30 06:45:00,70.4,69.8,29.94,WSW,250,0.0,0.0,98,0.00,,SKC,0.00,VWS V13.00,2013-08-30 11:45:00,
2013-08-30 06:50:00,70.6,70.0,29.93,WSW,250,0.0,0.0,98,0.00,,SKC,0.00,VWS V13.00,2013-08-30 11:50:00,
2013-08-30 06:55:00,70.9,70.3,29.94,WSW,250,0.0,0.0,98,0.00,,SKC,0.00,VWS V13.00,2013-08-30 11:55:00,
2013-08-30 07:00:00,71.3,70.7,29.94,WSW,250,0.0,0.0,98,0.00,,SKC,0.00,VWS V13.00,2013-08-30 12:00:00,
2013-08-30 07:05:00,71.7,71.1,29.94,WSW,250,0.0,0.0,98,0.00,,SKC,0.00,VWS V13.00,2013-08-30 12:05:00,
2013-08-30 07:10:00,72.1,71.5,29.94,WSW,250,0.0,0.0,98,0.00,,SKC,0.00,VWS V13.00,2013-08-30 12:10:00,
2013-08-30 07:15:00,72.5,71.6,29.94,WSW,250,0.0,0.0,97,0.00,,SKC,0.00,VWS V13.00,2013-08-30 12:15:00,
2013-08-30 07:20:00,73.0,72.1,29.94,WSW,250,0.0,0.0,97,0.00,,SKC,0.00,VWS V13.00,2013-08-30 12:20:00,
2013-08-30 07:25:00,73.5,72.3,29.95,WSW,250,0.0,0.0,96,0.00,,SKC,0.00,VWS V13.00,2013-08-30 12:25:00,
2013-08-30 07:30:00,73.8,72.6,29.94,WSW,250,0.0,0.0,96,0.00,,SKC,0.00,VWS V13.00,2013-08-30 12:30:00,
2013-08-30 07:35:00,74.2,72.7,29.95,WSW,250,0.0,0.0,95,0.00,,SKC,0.00,VWS V13.00,2013-08-30 12:35:00,
2013-08-30 07:40:00,74.6,73.1,29.95,WSW,250,0.0,0.0,95,0.00,,SKC,0.00,VWS V13.00,2013-08-30 12:40:00,
2013-08-30 07:45:00,75.0,73.5,29.95,WSW,250,0.0,0.0,95,0.00,,SKC,0.00,VWS V13.00,2013-08-30 12:45:00,
2013-08-30 07:50:00,75.3,73.5,29.95,WSW,250,0.0,0.0,94,0.00,,SKC,0.00,VWS V13.00,2013-08-30 12:50:00,
2013-08-30 07:55:00,75.6,73.8,29.95,WSW,250,0.0,0.0,94,0.00,,SKC,0.00,VWS V13.00,2013-08-30 12:55:00,
2013-08-30 08:00:00,75.8,73.6,29.95,WSW,250,0.0,0.0,93,0.00,,SKC,0.00,VWS V13.00,2013-08-30 13:00:00,
2013-08-30 08:05:00,76.1,73.6,29.95,WSW,250,0.0,0.0,92,0.00,,SKC,0.00,VWS V13.00,2013-08-30 13:05:00,
2013-08-30 08:10:00,76.4,73.9,29.95,WSW,250,0.0,0.0,92,0.00,,SKC,0.00,VWS V13.00,2013-08-30 13:10:00,
2013-08-30 08:15:00,76.7,74.2,29.95,WSW,250,0.0,0.0,92,0.00,,SKC,0.00,VWS V13.00,2013-08-30 13:15:00,
2013-08-30 08:20:00,77.1,74.6,29.95,WSW,250,0.0,0.0,92,0.00,,SKC,0.00,VWS V13.00,2013-08-30 13:20:00,
2013-08-30 08:25:00,77.7,74.9,29.95,WSW,250,0.0,0.0,91,0.00,,SKC,0.00,VWS V13.00,2013-08-30 13:25:00,
2013-08-30 08:30:00,78.2,75.0,29.95,WSW,250,0.0,0.0,90,0.00,,SKC,0.00,VWS V13.00,2013-08-30 13:30:00,
2013-08-30 08:35:00,78.6,75.1,29.95,WSW,250,0.0,0.0,89,0.00,,SKC,0.00,VWS V13.00,2013-08-30 13:35:00,
2013-08-30 08:40:00,79.2,76.0,29.95,WSW,250,0.0,0.0,90,0.00,,SKC,0.00,VWS V13.00,2013-08-30 13:40:00,
2013-08-30 08:45:00,80.0,76.1,29.95,ENE,78,0.0,0.0,88,0.00,,SKC,0.00,VWS V13.00,2013-08-30 13:45:00,
2013-08-30 08:50:00,80.7,76.5,29.95,NW,322,0.0,0.0,87,0.00,,SKC,0.00,VWS V13.00,2013-08-30 13:50:00,
2013-08-30 08:55:00,80.9,76.3,29.95,NE,44,0.0,0.0,86,0.00,,SKC,0.00,VWS V13.00,2013-08-30 13:55:00,
2013-08-30 08:59:00,80.9,76.3,29.95,North,5,0.0,0.0,86,0.00,,SKC,0.00,VWS V13.00,2013-08-30 13:59:00,
2013-08-30 09:04:00,81.2,76.3,29.95,North,349,0.0,0.0,85,0.00,,SKC,0.00,VWS V13.00,2013-08-30 14:04:00,
2013-08-30 09:09:00,81.6,76.7,29.95,NE,37,0.0,0.0,85,0.00,,SKC,0.00,VWS V13.00,2013-08-30 14:09:00,
2013-08-30 09:14:00,81.8,77.2,29.95,ENE,64,0.0,0.0,86,0.00,,SKC,0.00,VWS V13.00,2013-08-30 14:14:00,
2013-08-30 09:19:00,81.8,77.6,29.95,NE,43,0.0,0.0,87,0.00,,SKC,0.00,VWS V13.00,2013-08-30 14:19:00,
2013-08-30 09:24:00,81.7,76.8,29.96,NNE,27,0.0,0.0,85,0.00,,SKC,0.00,VWS V13.00,2013-08-30 14:24:00,
2013-08-30 09:29:00,81.9,76.9,29.96,ENE,76,0.0,0.0,85,0.00,,SKC,0.00,VWS V13.00,2013-08-30 14:29:00,
2013-08-30 09:34:00,82.2,77.2,29.96,ENE,71,0.0,0.0,85,0.00,,SKC,0.00,VWS V13.00,2013-08-30 14:34:00,
2013-08-30 09:39:00,82.7,77.7,29.96,ENE,78,0.0,0.0,85,0.00,,SKC,0.00,VWS V13.00,2013-08-30 14:39:00,
2013-08-30 09:44:00,83.1,78.1,29.96,East,92,0.0,0.0,85,0.00,,SKC,0.00,VWS V13.00,2013-08-30 14:44:00,
2013-08-30 09:49:00,83.6,78.3,29.95,SE,128,0.0,0.0,84,0.00,,SKC,0.00,VWS V13.00,2013-08-30 14:49:00,
2013-08-30 09:54:00,83.9,77.8,29.96,SSE,165,0.0,0.0,82,0.00,,SKC,0.00,VWS V13.00,2013-08-30 14:54:00,
2013-08-30 09:59:00,83.8,77.3,29.96,SSE,168,0.0,0.0,81,0.00,,SKC,0.00,VWS V13.00,2013-08-30 14:59:00,
2013-08-30 10:04:00,84.1,77.6,29.96,SE,142,0.0,0.0,81,0.00,,SKC,0.00,VWS V13.00,2013-08-30 15:04:00,
2013-08-30 10:09:00,84.0,77.5,29.95,SSE,161,2.0,8.0,81,0.00,,SKC,0.00,VWS V13.00,2013-08-30 15:09:00,
2013-08-30 10:14:00,83.6,77.2,29.95,South,185,1.0,8.0,81,0.00,,SKC,0.00,VWS V13.00,2013-08-30 15:14:00,
2013-08-30 10:19:00,83.8,77.7,29.95,South,184,4.0,8.0,82,0.00,,SKC,0.00,VWS V13.00,2013-08-30 15:19:00,
2013-08-30 10:24:00,84.0,77.2,29.95,SSE,157,4.0,8.0,80,0.00,,SKC,0.00,VWS V13.00,2013-08-30 15:24:00,
2013-08-30 10:29:00,84.5,78.0,29.95,NE,56,6.0,8.0,81,0.00,,SKC,0.00,VWS V13.00,2013-08-30 15:29:00,
2013-08-30 10:34:00,84.9,78.0,29.95,ENE,61,0.0,5.0,80,0.00,,SKC,0.00,VWS V13.00,2013-08-30 15:34:00,
2013-08-30 10:39:00,85.0,77.4,29.95,SE,135,3.0,6.0,78,0.00,,SKC,0.00,VWS V13.00,2013-08-30 15:39:00,
2013-08-30 10:44:00,85.0,77.0,29.95,South,169,0.0,6.0,77,0.00,,SKC,0.00,VWS V13.00,2013-08-30 15:44:00,
2013-08-30 10:49:00,85.1,77.5,29.95,South,169,0.0,6.0,78,0.00,,SKC,0.00,VWS V13.00,2013-08-30 15:49:00,
2013-08-30 10:54:00,85.4,77.8,29.95,ENE,74,1.0,6.0,78,0.00,,SKC,0.00,VWS V13.00,2013-08-30 15:54:00,
2013-08-30 10:59:00,85.8,78.9,29.95,East,96,1.0,6.0,80,0.00,,SKC,0.00,VWS V13.00,2013-08-30 15:59:00,
2013-08-30 11:04:00,86.0,77.6,29.95,South,171,2.0,4.0,76,0.00,,SKC,0.00,VWS V13.00,2013-08-30 16:04:00,
2013-08-30 11:09:00,86.1,77.7,29.95,South,171,0.0,4.0,76,0.00,,SKC,0.00,VWS V13.00,2013-08-30 16:09:00,
2013-08-30 11:14:00,86.1,78.1,29.95,SE,144,5.0,6.0,77,0.00,,SKC,0.00,VWS V13.00,2013-08-30 16:14:00,
2013-08-30 11:19:00,85.9,77.9,29.95,South,181,3.0,6.0,77,0.00,,SKC,0.00,VWS V13.00,2013-08-30 16:19:00,
2013-08-30 11:24:00,86.0,77.9,29.95,South,178,0.0,6.0,77,0.00,,SKC,0.00,VWS V13.00,2013-08-30 16:24:00,
2013-08-30 11:29:00,86.3,79.4,29.95,SW,229,2.0,6.0,80,0.00,,SKC,0.00,VWS V13.00,2013-08-30 16:29:00,
2013-08-30 11:34:00,86.8,79.1,29.94,West,268,4.0,4.0,78,0.00,,SKC,0.00,VWS V13.00,2013-08-30 16:34:00,
2013-08-30 11:39:00,87.0,77.3,29.94,NW,321,4.0,6.0,73,0.00,,SKC,0.00,VWS V13.00,2013-08-30 16:39:00,
2013-08-30 11:44:00,86.1,76.8,29.94,NNW,343,3.0,7.0,74,0.00,,SKC,0.00,VWS V13.00,2013-08-30 16:44:00,
2013-08-30 11:49:00,85.8,77.8,29.94,WNW,296,0.0,7.0,77,0.00,,SKC,0.00,VWS V13.00,2013-08-30 16:49:00,
2013-08-30 11:54:00,86.4,77.9,29.94,NNW,328,2.0,7.0,76,0.00,,SKC,0.00,VWS V13.00,2013-08-30 16:54:00,
2013-08-30 11:59:00,86.8,77.5,29.94,NNE,28,6.0,7.0,74,0.00,,SKC,0.00,VWS V13.00,2013-08-30 16:59:00,
2013-08-30 12:04:00,87.0,78.1,29.93,East,79,1.0,4.0,75,0.00,,SKC,0.00,VWS V13.00,2013-08-30 17:04:00,
2013-08-30 12:09:00,87.3,76.8,29.93,NNE,26,2.0,4.0,71,0.00,,SKC,0.00,VWS V13.00,2013-08-30 17:09:00,
2013-08-30 12:14:00,87.2,77.1,29.93,ENE,57,0.0,5.0,72,0.00,,SKC,0.00,VWS V13.00,2013-08-30 17:14:00,
2013-08-30 12:19:00,87.2,77.5,29.93,ENE,61,0.0,5.0,73,0.00,,SKC,0.00,VWS V13.00,2013-08-30 17:19:00,
2013-08-30 12:24:00,87.8,77.2,29.92,NW,308,4.0,5.0,71,0.00,,SKC,0.00,VWS V13.00,2013-08-30 17:24:00,
2013-08-30 12:29:00,87.5,78.6,29.92,West,268,7.0,9.0,75,0.00,,SKC,0.00,VWS V13.00,2013-08-30 17:29:00,
2013-08-30 12:34:00,86.9,78.8,29.92,WNW,290,5.0,6.0,77,0.00,,SKC,0.00,VWS V13.00,2013-08-30 17:34:00,
2013-08-30 12:39:00,86.8,78.7,29.92,WNW,282,2.0,6.0,77,0.00,,SKC,0.00,VWS V13.00,2013-08-30 17:39:00,
2013-08-30 12:44:00,87.3,77.2,29.92,NW,312,4.0,7.0,72,0.00,,SKC,0.00,VWS V13.00,2013-08-30 17:44:00,
2013-08-30 12:49:00,87.6,77.9,29.91,SW,218,0.0,7.0,73,0.00,,SKC,0.00,VWS V13.00,2013-08-30 17:49:00,
2013-08-30 12:54:00,88.1,77.5,29.91,West,265,7.0,9.0,71,0.00,,SKC,0.00,VWS V13.00,2013-08-30 17:54:00,
2013-08-30 12:59:00,87.8,76.4,29.91,NW,326,8.0,9.0,69,0.00,,SKC,0.00,VWS V13.00,2013-08-30 17:59:00,
2013-08-30 13:04:00,87.9,77.8,29.91,NW,323,8.0,10.0,72,0.00,,SKC,0.00,VWS V13.00,2013-08-30 18:04:00,
2013-08-30 13:09:00,87.9,76.0,29.91,NNW,328,5.0,10.0,68,0.00,,SKC,0.00,VWS V13.00,2013-08-30 18:09:00,
2013-08-30 13:14:00,87.4,75.1,29.91,NW,317,5.0,10.0,67,0.00,,SKC,0.00,VWS V13.00,2013-08-30 18:14:00,
2013-08-30 13:19:00,87.0,76.0,29.91,NE,39,5.0,10.0,70,0.00,,SKC,0.00,VWS V13.00,2013-08-30 18:19:00,
2013-08-30 13:24:00,86.9,76.4,29.91,NNW,333,2.0,10.0,71,0.00,,SKC,0.00,VWS V13.00,2013-08-30 18:24:00,
2013-08-30 13:29:00,87.0,76.0,29.91,North,5,5.0,10.0,70,0.00,,SKC,0.00,VWS V13.00,2013-08-30 18:29:00,
2013-08-30 13:34:00,87.5,76.5,29.91,NE,49,2.0,6.0,70,0.00,,SKC,0.00,VWS V13.00,2013-08-30 18:34:00,
2013-08-30 13:39:00,87.2,77.5,29.91,SSE,152,4.0,9.0,73,0.00,,SKC,0.00,VWS V13.00,2013-08-30 18:39:00,
2013-08-30 13:44:00,86.2,77.8,29.91,South,180,3.0,9.0,76,0.00,,SKC,0.00,VWS V13.00,2013-08-30 18:44:00,
2013-08-30 13:49:00,84.8,76.8,29.90,SE,145,7.0,9.0,77,0.00,,SKC,0.00,VWS V13.00,2013-08-30 18:49:00,
2013-08-30 13:54:00,83.8,77.3,29.91,South,170,6.0,9.0,81,0.00,,SKC,0.00,VWS V13.00,2013-08-30 18:54:00,
2013-08-30 13:59:00,83.2,76.4,29.91,East,101,1.0,9.0,80,0.00,,SKC,0.00,VWS V13.00,2013-08-30 18:59:00,
2013-08-30 14:04:00,82.7,76.3,29.91,SSE,154,1.0,5.0,81,0.00,,SKC,0.00,VWS V13.00,2013-08-30 19:04:00,
2013-08-30 14:09:00,82.4,76.4,29.91,SE,138,4.0,5.0,82,0.00,,SKC,0.00,VWS V13.00,2013-08-30 19:09:00,
2013-08-30 14:14:00,82.3,76.6,29.91,SE,138,0.0,5.0,83,0.00,,SKC,0.00,VWS V13.00,2013-08-30 19:14:00,
2013-08-30 14:19:00,82.5,76.4,29.90,ESE,102,2.0,5.0,82,0.00,,SKC,0.00,VWS V13.00,2013-08-30 19:19:00,
2013-08-30 14:24:00,82.6,76.6,29.90,SSE,159,2.0,5.0,82,0.00,,SKC,0.00,VWS V13.00,2013-08-30 19:24:00,
2013-08-30 14:29:00,82.3,75.5,29.91,SSE,167,3.0,5.0,80,0.00,,SKC,0.00,VWS V13.00,2013-08-30 19:29:00,
2013-08-30 14:34:00,82.0,75.6,29.91,South,183,4.0,6.0,81,0.00,,SKC,0.00,VWS V13.00,2013-08-30 19:34:00,
2013-08-30 14:39:00,81.6,75.6,29.90,SSE,158,2.0,7.0,82,0.00,,SKC,0.00,VWS V13.00,2013-08-30 19:39:00,
2013-08-30 14:44:00,81.2,75.6,29.89,SSE,162,2.0,7.0,83,0.00,,SKC,0.00,VWS V13.00,2013-08-30 19:44:00,
2013-08-30 14:49:00,81.1,75.8,29.88,South,176,5.0,7.0,84,0.00,,SKC,0.00,VWS V13.00,2013-08-30 19:49:00,
2013-08-30 14:54:00,81.0,75.7,29.89,SSE,148,5.0,7.0,84,0.00,,SKC,0.00,VWS V13.00,2013-08-30 19:54:00,
2013-08-30 14:59:00,81.0,75.7,29.90,SSE,156,4.0,7.0,84,0.00,,SKC,0.00,VWS V13.00,2013-08-30 19:59:00,
2013-08-30 15:04:00,80.9,75.6,29.91,South,170,7.0,8.0,84,0.00,,SKC,0.00,VWS V13.00,2013-08-30 20:04:00,
2013-08-30 15:09:00,80.8,75.9,29.90,South,173,4.0,8.0,85,0.00,,SKC,0.00,VWS V13.00,2013-08-30 20:09:00,
2013-08-30 15:14:00,80.7,76.5,29.89,South,186,0.0,8.0,87,0.00,,SKC,0.00,VWS V13.00,2013-08-30 20:14:00,
2013-08-30 15:19:00,80.6,76.0,29.89,South,186,5.0,8.0,86,0.00,,SKC,0.00,VWS V13.00,2013-08-30 20:19:00,
2013-08-30 15:24:00,80.7,76.1,29.90,South,188,7.0,8.0,86,0.00,,SKC,0.00,VWS V13.00,2013-08-30 20:24:00,
2013-08-30 15:29:00,80.6,75.7,29.90,South,169,5.0,8.0,85,0.00,,SKC,0.00,VWS V13.00,2013-08-30 20:29:00,
2013-08-30 15:34:00,80.5,75.6,29.90,South,182,6.0,7.0,85,0.00,,SKC,0.00,VWS V13.00,2013-08-30 20:34:00,
2013-08-30 15:39:00,80.5,75.6,29.90,South,173,1.0,8.0,85,0.00,,SKC,0.00,VWS V13.00,2013-08-30 20:39:00,
2013-08-30 15:44:00,80.5,75.2,29.91,SSE,168,4.0,10.0,84,0.00,,SKC,0.00,VWS V13.00,2013-08-30 20:44:00,
2013-08-30 15:49:00,80.5,75.2,29.90,SSE,157,5.0,10.0,84,0.00,,SKC,0.00,VWS V13.00,2013-08-30 20:49:00,
2013-08-30 15:54:00,80.5,75.2,29.91,SSE,148,5.0,10.0,84,0.00,,SKC,0.00,VWS V13.00,2013-08-30 20:54:00,
2013-08-30 15:59:00,80.3,75.0,29.90,SE,140,6.0,11.0,84,0.00,,SKC,0.00,VWS V13.00,2013-08-30 20:59:00,
2013-08-30 16:04:00,80.1,74.8,29.90,ESE,105,1.0,6.0,84,0.00,,SKC,0.00,VWS V13.00,2013-08-30 21:04:00,
2013-08-30 16:09:00,80.1,75.2,29.89,South,184,4.0,7.0,85,0.00,,SKC,0.00,VWS V13.00,2013-08-30 21:09:00,
2013-08-30 16:14:00,80.2,75.3,29.89,SE,136,5.0,8.0,85,0.00,,SKC,0.00,VWS V13.00,2013-08-30 21:14:00,
2013-08-30 16:19:00,80.4,75.8,29.89,ESE,104,7.0,10.0,86,0.00,,SKC,0.00,VWS V13.00,2013-08-30 21:19:00,
2013-08-30 16:24:00,80.1,75.2,29.89,ENE,74,5.0,11.0,85,0.00,,SKC,0.00,VWS V13.00,2013-08-30 21:24:00,
2013-08-30 16:29:00,79.6,74.3,29.90,East,90,5.0,11.0,84,0.00,,SKC,0.00,VWS V13.00,2013-08-30 21:29:00,
2013-08-30 16:34:00,79.1,74.2,29.90,SSE,157,7.0,8.0,85,0.00,,SKC,0.00,VWS V13.00,2013-08-30 21:34:00,
2013-08-30 16:39:00,78.7,73.1,29.91,ESE,121,1.0,8.0,83,0.00,,SKC,0.00,VWS V13.00,2013-08-30 21:39:00,
2013-08-30 16:44:00,78.5,73.3,29.90,SSW,198,2.0,8.0,84,0.00,,SKC,0.00,VWS V13.00,2013-08-30 21:44:00,
2013-08-30 16:48:00,78.4,73.2,29.90,East,101,1.0,8.0,84,0.00,,SKC,0.00,VWS V13.00,2013-08-30 21:48:00,
2013-08-30 16:53:00,78.5,73.6,29.90,SE,136,0.0,8.0,85,0.00,,SKC,0.00,VWS V13.00,2013-08-30 21:53:00,
2013-08-30 16:59:00,78.7,74.2,29.89,South,170,2.0,8.0,86,0.00,,SKC,0.00,VWS V13.00,2013-08-30 21:59:00,
2013-08-30 17:03:00,78.8,74.3,29.89,South,188,1.0,4.0,86,0.00,,SKC,0.00,VWS V13.00,2013-08-30 22:03:00,
2013-08-30 17:08:00,79.0,74.1,29.90,SSW,196,0.0,5.0,85,0.00,,SKC,0.00,VWS V13.00,2013-08-30 22:08:00,
2013-08-30 17:14:00,79.2,74.3,29.90,SSE,166,0.0,5.0,85,0.00,,SKC,0.00,VWS V13.00,2013-08-30 22:14:00,
2013-08-30 17:18:00,79.4,74.2,29.89,ESE,121,2.0,5.0,84,0.00,,SKC,0.00,VWS V13.00,2013-08-30 22:18:00,
2013-08-30 17:23:00,79.4,74.2,29.89,South,173,4.0,5.0,84,0.00,,SKC,0.00,VWS V13.00,2013-08-30 22:23:00,
2013-08-30 17:28:00,79.4,73.8,29.89,South,173,0.0,5.0,83,0.00,,SKC,0.00,VWS V13.00,2013-08-30 22:28:00,
2013-08-30 17:33:00,79.4,73.8,29.90,SW,229,0.0,3.0,83,0.00,,SKC,0.00,VWS V13.00,2013-08-30 22:33:00,
2013-08-30 17:38:00,79.4,74.2,29.90,NE,36,5.0,5.0,84,0.00,,SKC,0.00,VWS V13.00,2013-08-30 22:38:00,
2013-08-30 17:43:00,79.4,74.2,29.90,NE,48,7.0,7.0,84,0.00,,SKC,0.00,VWS V13.00,2013-08-30 22:43:00,
2013-08-30 17:48:00,79.1,74.2,29.92,NE,36,11.0,12.0,85,0.00,,SKC,0.00,VWS V13.00,2013-08-30 22:48:00,
2013-08-30 17:53:00,78.5,74.0,29.92,NE,40,5.0,12.0,86,0.00,,SKC,0.00,VWS V13.00,2013-08-30 22:53:00,
2013-08-30 17:58:00,78.0,74.2,29.90,NNE,27,3.0,12.0,88,0.01,,SKC,0.01,VWS V13.00,2013-08-30 22:58:00,
2013-08-30 18:03:00,77.9,74.1,29.90,NE,38,5.0,6.0,88,0.02,,SKC,0.02,VWS V13.00,2013-08-30 23:03:00,
2013-08-30 18:08:00,77.9,74.1,29.89,East,90,2.0,6.0,88,0.03,,SKC,0.03,VWS V13.00,2013-08-30 23:08:00,
2013-08-30 18:13:00,77.9,74.4,29.89,East,98,0.0,6.0,89,0.04,,SKC,0.04,VWS V13.00,2013-08-30 23:13:00,
2013-08-30 18:18:00,77.7,74.2,29.89,ENE,65,2.0,6.0,89,0.04,,SKC,0.04,VWS V13.00,2013-08-30 23:18:00,
2013-08-30 18:23:00,77.5,74.7,29.89,ENE,65,6.0,6.0,91,0.04,,SKC,0.04,VWS V13.00,2013-08-30 23:23:00,
2013-08-30 18:28:00,77.4,74.6,29.89,East,81,1.0,6.0,91,0.04,,SKC,0.04,VWS V13.00,2013-08-30 23:28:00,
2013-08-30 18:33:00,77.3,74.5,29.89,ESE,115,0.0,4.0,91,0.04,,SKC,0.04,VWS V13.00,2013-08-30 23:33:00,
2013-08-30 18:38:00,77.2,74.4,29.88,ESE,115,0.0,4.0,91,0.04,,SKC,0.04,VWS V13.00,2013-08-30 23:38:00,
2013-08-30 18:43:00,77.1,74.3,29.88,ESE,115,0.0,4.0,91,0.04,,SKC,0.04,VWS V13.00,2013-08-30 23:43:00,
2013-08-30 18:48:00,77.1,74.3,29.88,ESE,115,0.0,4.0,91,0.04,,SKC,0.04,VWS V13.00,2013-08-30 23:48:00,
2013-08-30 18:53:00,77.0,74.2,29.88,ESE,115,0.0,4.0,91,0.04,,SKC,0.04,VWS V13.00,2013-08-30 23:53:00,
2013-08-30 18:58:00,77.0,74.5,29.88,ESE,115,0.0,4.0,92,0.04,,SKC,0.04,VWS V13.00,2013-08-30 23:58:00,
2013-08-30 19:03:00,76.6,74.1,29.87,ESE,115,1.0,1.0,92,0.02,,SKC,0.04,VWS V13.00,2013-08-31 00:03:00,
2013-08-30 19:08:00,76.3,73.8,29.88,ESE,115,0.0,1.0,92,0.02,,SKC,0.04,VWS V13.00,2013-08-31 00:08:00,
2013-08-30 19:13:00,76.1,73.6,29.88,ESE,115,0.0,1.0,92,0.02,,SKC,0.04,VWS V13.00,2013-08-31 00:13:00,
2013-08-30 19:18:00,76.0,73.5,29.88,ESE,115,0.0,1.0,92,0.02,,SKC,0.04,VWS V13.00,2013-08-31 00:18:00,
2013-08-30 19:23:00,75.9,73.7,29.88,ESE,115,0.0,1.0,93,0.02,,SKC,0.04,VWS V13.00,2013-08-31 00:23:00,
2013-08-30 19:28:00,75.6,73.4,29.88,ESE,115,0.0,1.0,93,0.02,,SKC,0.04,VWS V13.00,2013-08-31 00:28:00,
2013-08-30 19:33:00,75.2,73.4,29.88,ESE,115,0.0,1.0,94,0.00,,SKC,0.04,VWS V13.00,2013-08-31 00:33:00,
2013-08-30 19:38:00,74.9,73.1,29.88,ESE,115,0.0,1.0,94,0.00,,SKC,0.04,VWS V13.00,2013-08-31 00:38:00,
2013-08-30 19:43:00,74.8,73.3,29.88,ESE,115,0.0,1.0,95,0.00,,SKC,0.04,VWS V13.00,2013-08-31 00:43:00,
2013-08-30 19:48:00,74.6,73.1,29.88,ESE,115,0.0,1.0,95,0.00,,SKC,0.04,VWS V13.00,2013-08-31 00:48:00,
2013-08-30 19:53:00,74.5,73.0,29.88,ESE,115,0.0,1.0,95,0.00,,SKC,0.04,VWS V13.00,2013-08-31 00:53:00,
2013-08-30 19:58:00,74.4,72.9,29.88,ESE,115,0.0,1.0,95,0.00,,SKC,0.04,VWS V13.00,2013-08-31 00:58:00,
2013-08-30 20:03:00,74.2,72.7,29.88,ESE,115,0.0,0.0,95,0.00,,SKC,0.04,VWS V13.00,2013-08-31 01:03:00,
2013-08-30 20:08:00,74.2,73.0,29.88,ESE,115,0.0,0.0,96,0.00,,SKC,0.04,VWS V13.00,2013-08-31 01:08:00,
2013-08-30 20:13:00,74.1,72.9,29.88,ESE,115,0.0,0.0,96,0.00,,SKC,0.04,VWS V13.00,2013-08-31 01:13:00,
2013-08-30 20:18:00,74.0,72.8,29.88,ESE,115,0.0,0.0,96,0.00,,SKC,0.04,VWS V13.00,2013-08-31 01:18:00,
2013-08-30 20:23:00,73.9,72.7,29.88,ESE,115,0.0,0.0,96,0.00,,SKC,0.04,VWS V13.00,2013-08-31 01:23:00,
2013-08-30 20:28:00,73.7,72.5,29.88,ESE,115,0.0,0.0,96,0.00,,SKC,0.04,VWS V13.00,2013-08-31 01:28:00,
2013-08-30 20:33:00,73.7,72.8,29.88,ESE,115,0.0,0.0,97,0.00,,SKC,0.04,VWS V13.00,2013-08-31 01:33:00,
2013-08-30 20:38:00,73.6,72.7,29.88,ESE,115,0.0,0.0,97,0.00,,SKC,0.04,VWS V13.00,2013-08-31 01:38:00,
2013-08-30 20:43:00,73.5,72.6,29.88,ESE,115,0.0,0.0,97,0.00,,SKC,0.04,VWS V13.00,2013-08-31 01:43:00,
2013-08-30 20:48:00,73.5,72.6,29.88,ESE,115,0.0,0.0,97,0.00,,SKC,0.04,VWS V13.00,2013-08-31 01:48:00,
2013-08-30 20:53:00,73.4,72.5,29.89,ESE,115,0.0,0.0,97,0.00,,SKC,0.04,VWS V13.00,2013-08-31 01:53:00,
2013-08-30 20:58:00,73.3,72.4,29.88,ESE,115,0.0,0.0,97,0.00,,SKC,0.04,VWS V13.00,2013-08-31 01:58:00,
2013-08-30 21:03:00,73.2,72.3,29.88,ESE,115,0.0,0.0,97,0.00,,SKC,0.04,VWS V13.00,2013-08-31 02:03:00,
2013-08-30 21:08:00,73.1,72.2,29.88,ESE,115,0.0,0.0,97,0.00,,SKC,0.04,VWS V13.00,2013-08-31 02:08:00,
2013-08-30 21:13:00,72.9,72.0,29.88,ESE,115,0.0,0.0,97,0.00,,SKC,0.04,VWS V13.00,2013-08-31 02:13:00,
2013-08-30 21:18:00,72.8,71.9,29.88,ESE,115,0.0,0.0,97,0.00,,SKC,0.04,VWS V13.00,2013-08-31 02:18:00,
2013-08-30 21:23:00,72.8,71.9,29.88,ESE,115,0.0,0.0,97,0.00,,SKC,0.04,VWS V13.00,2013-08-31 02:23:00,
2013-08-30 21:28:00,72.8,71.9,29.89,SE,140,1.0,2.0,97,0.00,,SKC,0.04,VWS V13.00,2013-08-31 02:28:00,
2013-08-30 21:33:00,73.0,72.4,29.89,SSE,162,0.0,2.0,98,0.00,,SKC,0.04,VWS V13.00,2013-08-31 02:33:00,
2013-08-30 21:38:00,73.1,72.5,29.89,SSE,162,0.0,2.0,98,0.00,,SKC,0.04,VWS V13.00,2013-08-31 02:38:00,
2013-08-30 21:43:00,73.0,72.4,29.89,SSE,162,0.0,2.0,98,0.00,,SKC,0.04,VWS V13.00,2013-08-31 02:43:00,
2013-08-30 21:48:00,72.9,72.0,29.89,SSE,162,0.0,2.0,97,0.00,,SKC,0.04,VWS V13.00,2013-08-31 02:48:00,
2013-08-30 21:53:00,72.8,71.9,29.89,SSE,162,0.0,2.0,97,0.00,,SKC,0.04,VWS V13.00,2013-08-31 02:53:00,
2013-08-30 21:58:00,72.7,71.8,29.89,SSE,162,0.0,2.0,97,0.00,,SKC,0.04,VWS V13.00,2013-08-31 02:58:00,
2013-08-30 22:03:00,72.6,72.0,29.89,SSE,162,0.0,0.0,98,0.00,,SKC,0.04,VWS V13.00,2013-08-31 03:03:00,
2013-08-30 22:08:00,72.6,72.0,29.89,SSE,162,0.0,0.0,98,0.00,,SKC,0.04,VWS V13.00,2013-08-31 03:08:00,
2013-08-30 22:13:00,72.6,72.0,29.88,SSE,162,0.0,0.0,98,0.00,,SKC,0.04,VWS V13.00,2013-08-31 03:13:00,
2013-08-30 22:18:00,72.4,71.8,29.88,SSE,162,0.0,0.0,98,0.00,,SKC,0.04,VWS V13.00,2013-08-31 03:18:00,
2013-08-30 22:23:00,72.3,71.7,29.88,SSE,162,0.0,0.0,98,0.00,,SKC,0.04,VWS V13.00,2013-08-31 03:23:00,
2013-08-30 22:28:00,72.3,71.7,29.88,SSE,162,0.0,0.0,98,0.00,,SKC,0.04,VWS V13.00,2013-08-31 03:28:00,
2013-08-30 22:33:00,72.4,71.8,29.88,SSE,162,0.0,0.0,98,0.00,,SKC,0.04,VWS V13.00,2013-08-31 03:33:00,
2013-08-30 22:38:00,72.5,71.9,29.88,SSE,162,0.0,0.0,98,0.00,,SKC,0.04,VWS V13.00,2013-08-31 03:38:00,
2013-08-30 22:43:00,72.5,71.9,29.88,SSE,162,0.0,0.0,98,0.00,,SKC,0.04,VWS V13.00,2013-08-31 03:43:00,
2013-08-30 22:48:00,72.3,71.7,29.88,SSE,162,0.0,0.0,98,0.00,,SKC,0.04,VWS V13.00,2013-08-31 03:48:00,
2013-08-30 22:53:00,72.2,71.6,29.88,SSE,162,0.0,0.0,98,0.00,,SKC,0.04,VWS V13.00,2013-08-31 03:53:00,
2013-08-30 22:58:00,72.2,71.6,29.88,SSE,162,0.0,2.0,98,0.00,,SKC,0.04,VWS V13.00,2013-08-31 03:58:00,
2013-08-30 23:01:00,72.2,71.6,29.88,SSE,162,0.0,2.0,98,0.00,,SKC,0.04,VWS V13.00,2013-08-31 04:01:00,
2013-08-30 23:06:00,72.4,72.1,29.89,South,175,0.0,2.0,99,0.00,,SKC,0.04,VWS V13.00,2013-08-31 04:06:00,
2013-08-30 23:11:00,72.6,72.3,29.88,SSE,156,0.0,4.0,99,0.00,,SKC,0.04,VWS V13.00,2013-08-31 04:11:00,
2013-08-30 23:16:00,72.6,72.0,29.88,South,171,0.0,4.0,98,0.00,,SKC,0.04,VWS V13.00,2013-08-31 04:16:00,
2013-08-30 23:21:00,72.6,72.0,29.88,South,171,0.0,4.0,98,0.00,,SKC,0.04,VWS V13.00,2013-08-31 04:21:00,
2013-08-30 23:26:00,72.6,72.0,29.88,South,178,1.0,5.0,98,0.00,,SKC,0.04,VWS V13.00,2013-08-31 04:26:00,
2013-08-30 23:31:00,72.7,72.1,29.88,SSE,168,4.0,6.0,98,0.00,,SKC,0.04,VWS V13.00,2013-08-31 04:31:00,
2013-08-30 23:36:00,73.0,72.1,29.88,South,174,5.0,8.0,97,0.00,,SKC,0.04,VWS V13.00,2013-08-31 04:36:00,
2013-08-30 23:41:00,73.1,72.2,29.88,South,174,6.0,8.0,97,0.00,,SKC,0.04,VWS V13.00,2013-08-31 04:41:00,
2013-08-30 23:46:00,73.1,72.2,29.88,SSE,150,1.0,8.0,97,0.00,,SKC,0.04,VWS V13.00,2013-08-31 04:46:00,
2013-08-30 23:51:00,73.0,72.1,29.88,SSE,150,0.0,8.0,97,0.00,,SKC,0.04,VWS V13.00,2013-08-31 04:51:00,
2013-08-30 23:56:00,72.9,72.0,29.88,SSE,150,0.0,8.0,97,0.00,,SKC,0.04,VWS V13.00,2013-08-31 04:56:00,